sensor_id;sensor_type;location;lat;lon;timestamp;temperature;humidity
7572;DHT22;3827;49.928;8.548;2022-09-24T00:01:23;9.90;99.90
7572;DHT22;3827;49.928;8.548;2022-09-24T00:03:51;10.30;99.90
7572;DHT22;3827;49.928;8.548;2022-09-24T00:06:19;10.00;99.90
7572;DHT22;3827;49.928;8.548;2022-09-24T00:08:47;9.90;99.90
7572;DHT22;3827;49.928;8.548;2022-09-24T00:11:14;10.00;99.90
7572;DHT22;3827;49.928;8.548;2022-09-24T00:13:42;10.00;99.90
7572;DHT22;3827;49.928;8.548;2022-09-24T00:16:12;9.90;99.90
7572;DHT22;3827;49.928;8.548;2022-09-24T00:18:40;10.00;99.90
7572;DHT22;3827;49.928;8.548;2022-09-24T00:21:12;10.00;99.90
7572;DHT22;3827;49.928;8.548;2022-09-24T00:23:39;10.00;99.90
7572;DHT22;3827;49.928;8.548;2022-09-24T00:26:06;10.00;99.90
7572;DHT22;3827;49.928;8.548;2022-09-24T00:28:50;10.00;99.90
7572;DHT22;3827;49.928;8.548;2022-09-24T00:31:18;10.00;99.90
7572;DHT22;3827;49.928;8.548;2022-09-24T00:33:45;10.00;99.90
7572;DHT22;3827;49.928;8.548;2022-09-24T00:36:13;10.00;99.90
7572;DHT22;3827;49.928;8.548;2022-09-24T00:38:40;9.90;99.90
7572;DHT22;3827;49.928;8.548;2022-09-24T00:41:07;9.80;99.90
7572;DHT22;3827;49.928;8.548;2022-09-24T00:43:35;9.80;99.90
7572;DHT22;3827;49.928;8.548;2022-09-24T00:46:07;9.80;99.90
7572;DHT22;3827;49.928;8.548;2022-09-24T00:48:42;9.80;99.90
7572;DHT22;3827;49.928;8.548;2022-09-24T00:51:11;9.70;99.90
7572;DHT22;3827;49.928;8.548;2022-09-24T00:53:39;9.60;99.90
7572;DHT22;3827;49.928;8.548;2022-09-24T00:56:08;9.60;99.90
7572;DHT22;3827;49.928;8.548;2022-09-24T00:58:43;9.50;99.90
7572;DHT22;3827;49.928;8.548;2022-09-24T01:01:11;9.50;99.90
7572;DHT22;3827;49.928;8.548;2022-09-24T01:03:40;9.40;99.90
7572;DHT22;3827;49.928;8.548;2022-09-24T01:06:08;9.40;99.90
7572;DHT22;3827;49.928;8.548;2022-09-24T01:08:35;9.30;99.90
7572;DHT22;3827;49.928;8.548;2022-09-24T01:11:09;9.30;99.90
7572;DHT22;3827;49.928;8.548;2022-09-24T01:13:54;9.30;99.90
7572;DHT22;3827;49.928;8.548;2022-09-24T01:16:29;9.20;99.90
7572;DHT22;3827;49.928;8.548;2022-09-24T01:19:07;9.10;99.90
7572;DHT22;3827;49.928;8.548;2022-09-24T01:21:37;9.10;99.90
7572;DHT22;3827;49.928;8.548;2022-09-24T01:24:22;9.10;99.90
7572;DHT22;3827;49.928;8.548;2022-09-24T01:27:02;8.90;99.90
7572;DHT22;3827;49.928;8.548;2022-09-24T01:29:38;9.00;99.90
7572;DHT22;3827;49.928;8.548;2022-09-24T01:32:12;8.90;99.90
7572;DHT22;3827;49.928;8.548;2022-09-24T01:34:44;9.00;99.90
7572;DHT22;3827;49.928;8.548;2022-09-24T01:37:16;8.80;99.90
7572;DHT22;3827;49.928;8.548;2022-09-24T01:39:45;8.70;99.90
7572;DHT22;3827;49.928;8.548;2022-09-24T01:42:13;8.70;99.90
7572;DHT22;3827;49.928;8.548;2022-09-24T01:44:42;8.60;99.90
7572;DHT22;3827;49.928;8.548;2022-09-24T01:47:12;8.60;99.90
7572;DHT22;3827;49.928;8.548;2022-09-24T01:49:42;8.60;99.90
7572;DHT22;3827;49.928;8.548;2022-09-24T01:52:13;8.50;99.90
7572;DHT22;3827;49.928;8.548;2022-09-24T01:54:42;8.50;99.90
7572;DHT22;3827;49.928;8.548;2022-09-24T01:57:17;8.50;99.90
7572;DHT22;3827;49.928;8.548;2022-09-24T01:59:49;8.50;99.90
7572;DHT22;3827;49.928;8.548;2022-09-24T02:02:23;8.50;99.90
7572;DHT22;3827;49.928;8.548;2022-09-24T02:04:56;8.50;99.90
7572;DHT22;3827;49.928;8.548;2022-09-24T02:07:28;8.40;99.90
7572;DHT22;3827;49.928;8.548;2022-09-24T02:09:58;8.40;99.90
7572;DHT22;3827;49.928;8.548;2022-09-24T02:12:28;8.30;99.90
7572;DHT22;3827;49.928;8.548;2022-09-24T02:15:02;8.30;99.90
7572;DHT22;3827;49.928;8.548;2022-09-24T02:17:34;8.30;99.90
7572;DHT22;3827;49.928;8.548;2022-09-24T02:20:05;8.20;99.90
7572;DHT22;3827;49.928;8.548;2022-09-24T02:22:35;8.10;99.90
7572;DHT22;3827;49.928;8.548;2022-09-24T02:25:04;8.00;99.90
7572;DHT22;3827;49.928;8.548;2022-09-24T02:27:31;8.00;99.90
7572;DHT22;3827;49.928;8.548;2022-09-24T02:29:59;8.20;99.90
7572;DHT22;3827;49.928;8.548;2022-09-24T02:32:29;8.30;99.90
7572;DHT22;3827;49.928;8.548;2022-09-24T02:34:59;8.10;99.90
7572;DHT22;3827;49.928;8.548;2022-09-24T02:37:27;8.00;99.90
7572;DHT22;3827;49.928;8.548;2022-09-24T02:39:54;7.90;99.90
7572;DHT22;3827;49.928;8.548;2022-09-24T02:42:22;7.80;99.90
7572;DHT22;3827;49.928;8.548;2022-09-24T02:44:49;7.90;99.90
7572;DHT22;3827;49.928;8.548;2022-09-24T02:47:18;7.80;99.90
7572;DHT22;3827;49.928;8.548;2022-09-24T02:49:44;7.80;99.90
7572;DHT22;3827;49.928;8.548;2022-09-24T02:52:11;7.70;99.90
7572;DHT22;3827;49.928;8.548;2022-09-24T02:54:38;7.70;99.90
7572;DHT22;3827;49.928;8.548;2022-09-24T02:57:05;7.60;99.90
7572;DHT22;3827;49.928;8.548;2022-09-24T02:59:32;7.60;99.90
7572;DHT22;3827;49.928;8.548;2022-09-24T03:02:00;8.00;99.90
7572;DHT22;3827;49.928;8.548;2022-09-24T03:04:28;7.70;99.90
7572;DHT22;3827;49.928;8.548;2022-09-24T03:06:56;7.60;99.90
7572;DHT22;3827;49.928;8.548;2022-09-24T03:09:23;7.90;99.90
7572;DHT22;3827;49.928;8.548;2022-09-24T03:11:49;7.60;99.90
7572;DHT22;3827;49.928;8.548;2022-09-24T03:14:16;7.60;99.90
7572;DHT22;3827;49.928;8.548;2022-09-24T03:16:43;7.60;99.90
7572;DHT22;3827;49.928;8.548;2022-09-24T03:19:10;7.60;99.90
7572;DHT22;3827;49.928;8.548;2022-09-24T03:21:38;7.50;99.90
7572;DHT22;3827;49.928;8.548;2022-09-24T03:24:05;7.50;99.90
7572;DHT22;3827;49.928;8.548;2022-09-24T03:26:32;7.50;99.90
7572;DHT22;3827;49.928;8.548;2022-09-24T03:28:58;7.60;99.90
7572;DHT22;3827;49.928;8.548;2022-09-24T03:31:25;7.50;99.90
7572;DHT22;3827;49.928;8.548;2022-09-24T03:33:51;7.50;99.90
7572;DHT22;3827;49.928;8.548;2022-09-24T03:36:20;7.60;99.90
7572;DHT22;3827;49.928;8.548;2022-09-24T03:38:49;7.50;99.90
7572;DHT22;3827;49.928;8.548;2022-09-24T03:41:16;7.50;99.90
7572;DHT22;3827;49.928;8.548;2022-09-24T03:43:43;7.50;99.90
7572;DHT22;3827;49.928;8.548;2022-09-24T03:46:11;7.60;99.90
7572;DHT22;3827;49.928;8.548;2022-09-24T03:48:39;7.60;99.90
7572;DHT22;3827;49.928;8.548;2022-09-24T03:51:07;7.80;99.90
7572;DHT22;3827;49.928;8.548;2022-09-24T03:53:35;7.70;99.90
7572;DHT22;3827;49.928;8.548;2022-09-24T03:56:04;7.50;99.90
7572;DHT22;3827;49.928;8.548;2022-09-24T03:58:31;7.50;99.90
7572;DHT22;3827;49.928;8.548;2022-09-24T04:01:00;7.50;99.90
7572;DHT22;3827;49.928;8.548;2022-09-24T04:03:30;7.40;99.90
7572;DHT22;3827;49.928;8.548;2022-09-24T04:05:57;7.40;99.90
7572;DHT22;3827;49.928;8.548;2022-09-24T04:08:24;7.40;99.90
7572;DHT22;3827;49.928;8.548;2022-09-24T04:10:51;7.40;99.90
7572;DHT22;3827;49.928;8.548;2022-09-24T04:13:19;7.40;99.90
7572;DHT22;3827;49.928;8.548;2022-09-24T04:15:46;7.40;99.90
7572;DHT22;3827;49.928;8.548;2022-09-24T04:18:13;7.50;99.90
7572;DHT22;3827;49.928;8.548;2022-09-24T04:20:40;7.40;99.90
7572;DHT22;3827;49.928;8.548;2022-09-24T04:23:07;7.40;99.90
7572;DHT22;3827;49.928;8.548;2022-09-24T04:25:33;7.50;99.90
7572;DHT22;3827;49.928;8.548;2022-09-24T04:28:02;7.50;99.90
7572;DHT22;3827;49.928;8.548;2022-09-24T04:30:32;7.50;99.90
7572;DHT22;3827;49.928;8.548;2022-09-24T04:32:59;7.40;99.90
7572;DHT22;3827;49.928;8.548;2022-09-24T04:35:28;7.30;99.90
7572;DHT22;3827;49.928;8.548;2022-09-24T04:37:57;7.20;99.90
7572;DHT22;3827;49.928;8.548;2022-09-24T04:40:25;7.20;99.90
7572;DHT22;3827;49.928;8.548;2022-09-24T04:42:52;7.20;99.90
7572;DHT22;3827;49.928;8.548;2022-09-24T04:45:19;7.20;99.90
7572;DHT22;3827;49.928;8.548;2022-09-24T04:47:48;7.20;99.90
7572;DHT22;3827;49.928;8.548;2022-09-24T04:50:17;7.20;99.90
7572;DHT22;3827;49.928;8.548;2022-09-24T04:52:47;7.20;99.90
7572;DHT22;3827;49.928;8.548;2022-09-24T04:55:14;7.30;99.90
7572;DHT22;3827;49.928;8.548;2022-09-24T04:57:41;7.30;99.90
7572;DHT22;3827;49.928;8.548;2022-09-24T05:00:12;7.30;99.90
7572;DHT22;3827;49.928;8.548;2022-09-24T05:02:40;7.20;99.90
7572;DHT22;3827;49.928;8.548;2022-09-24T05:05:09;7.20;99.90
7572;DHT22;3827;49.928;8.548;2022-09-24T05:07:37;7.30;99.90
7572;DHT22;3827;49.928;8.548;2022-09-24T05:10:07;7.30;99.90
7572;DHT22;3827;49.928;8.548;2022-09-24T05:12:34;7.10;99.90
7572;DHT22;3827;49.928;8.548;2022-09-24T05:15:03;7.10;99.90
7572;DHT22;3827;49.928;8.548;2022-09-24T05:17:30;7.10;99.90
7572;DHT22;3827;49.928;8.548;2022-09-24T05:19:57;7.20;99.90
7572;DHT22;3827;49.928;8.548;2022-09-24T05:22:27;7.20;99.90
7572;DHT22;3827;49.928;8.548;2022-09-24T05:24:54;7.40;99.90
7572;DHT22;3827;49.928;8.548;2022-09-24T05:27:21;7.20;99.90
7572;DHT22;3827;49.928;8.548;2022-09-24T05:29:48;7.20;99.90
7572;DHT22;3827;49.928;8.548;2022-09-24T05:32:17;7.20;99.90
7572;DHT22;3827;49.928;8.548;2022-09-24T05:34:45;7.30;99.90
7572;DHT22;3827;49.928;8.548;2022-09-24T05:37:12;7.40;99.90
7572;DHT22;3827;49.928;8.548;2022-09-24T05:39:41;7.40;99.90
7572;DHT22;3827;49.928;8.548;2022-09-24T05:42:09;7.50;99.90
7572;DHT22;3827;49.928;8.548;2022-09-24T05:44:38;7.50;99.90
7572;DHT22;3827;49.928;8.548;2022-09-24T05:47:05;7.60;99.90
7572;DHT22;3827;49.928;8.548;2022-09-24T05:49:33;7.70;99.90
7572;DHT22;3827;49.928;8.548;2022-09-24T05:52:00;7.70;99.90
7572;DHT22;3827;49.928;8.548;2022-09-24T05:54:27;8.00;99.90
7572;DHT22;3827;49.928;8.548;2022-09-24T05:56:55;7.70;99.90
7572;DHT22;3827;49.928;8.548;2022-09-24T05:59:25;7.70;99.90
7572;DHT22;3827;49.928;8.548;2022-09-24T06:01:52;7.70;99.90
7572;DHT22;3827;49.928;8.548;2022-09-24T06:04:19;7.60;99.90
7572;DHT22;3827;49.928;8.548;2022-09-24T06:06:46;7.60;99.90
7572;DHT22;3827;49.928;8.548;2022-09-24T06:09:12;7.70;99.90
7572;DHT22;3827;49.928;8.548;2022-09-24T06:11:39;7.70;99.90
7572;DHT22;3827;49.928;8.548;2022-09-24T06:14:08;7.80;99.90
7572;DHT22;3827;49.928;8.548;2022-09-24T06:16:35;7.80;99.90
7572;DHT22;3827;49.928;8.548;2022-09-24T06:19:02;7.90;99.90
7572;DHT22;3827;49.928;8.548;2022-09-24T06:21:29;8.00;99.90
7572;DHT22;3827;49.928;8.548;2022-09-24T06:23:56;8.10;99.90
7572;DHT22;3827;49.928;8.548;2022-09-24T06:26:23;8.20;99.90
7572;DHT22;3827;49.928;8.548;2022-09-24T06:28:51;8.30;99.90
7572;DHT22;3827;49.928;8.548;2022-09-24T06:31:20;8.30;99.90
7572;DHT22;3827;49.928;8.548;2022-09-24T06:33:47;8.40;99.90
7572;DHT22;3827;49.928;8.548;2022-09-24T06:36:13;8.50;99.90
7572;DHT22;3827;49.928;8.548;2022-09-24T06:38:43;8.50;99.90
7572;DHT22;3827;49.928;8.548;2022-09-24T06:41:10;8.60;99.90
7572;DHT22;3827;49.928;8.548;2022-09-24T06:43:37;9.10;99.90
7572;DHT22;3827;49.928;8.548;2022-09-24T06:46:04;8.80;99.90
7572;DHT22;3827;49.928;8.548;2022-09-24T06:48:32;8.90;99.90
7572;DHT22;3827;49.928;8.548;2022-09-24T06:50:59;9.10;99.90
7572;DHT22;3827;49.928;8.548;2022-09-24T06:53:26;9.20;99.90
7572;DHT22;3827;49.928;8.548;2022-09-24T06:55:55;9.40;99.90
7572;DHT22;3827;49.928;8.548;2022-09-24T06:58:24;9.50;99.90
7572;DHT22;3827;49.928;8.548;2022-09-24T07:00:53;9.60;99.90
7572;DHT22;3827;49.928;8.548;2022-09-24T07:03:22;9.80;99.90
7572;DHT22;3827;49.928;8.548;2022-09-24T07:05:51;10.00;99.90
7572;DHT22;3827;49.928;8.548;2022-09-24T07:08:17;10.20;99.90
7572;DHT22;3827;49.928;8.548;2022-09-24T07:10:45;10.30;99.90
7572;DHT22;3827;49.928;8.548;2022-09-24T07:13:14;10.50;99.90
7572;DHT22;3827;49.928;8.548;2022-09-24T07:15:41;10.70;99.90
7572;DHT22;3827;49.928;8.548;2022-09-24T07:18:09;10.60;99.90
7572;DHT22;3827;49.928;8.548;2022-09-24T07:20:36;10.70;99.90
7572;DHT22;3827;49.928;8.548;2022-09-24T07:23:05;10.80;99.90
7572;DHT22;3827;49.928;8.548;2022-09-24T07:25:32;10.70;99.90
7572;DHT22;3827;49.928;8.548;2022-09-24T07:28:01;10.70;99.90
7572;DHT22;3827;49.928;8.548;2022-09-24T07:30:28;10.80;99.90
7572;DHT22;3827;49.928;8.548;2022-09-24T07:32:55;10.90;99.90
7572;DHT22;3827;49.928;8.548;2022-09-24T07:35:23;10.80;99.90
7572;DHT22;3827;49.928;8.548;2022-09-24T07:37:57;10.90;99.90
7572;DHT22;3827;49.928;8.548;2022-09-24T07:40:26;10.90;99.90
7572;DHT22;3827;49.928;8.548;2022-09-24T07:42:52;11.10;99.90
7572;DHT22;3827;49.928;8.548;2022-09-24T07:45:20;11.10;99.90
7572;DHT22;3827;49.928;8.548;2022-09-24T07:47:47;11.20;99.90
7572;DHT22;3827;49.928;8.548;2022-09-24T07:50:13;11.50;99.90
7572;DHT22;3827;49.928;8.548;2022-09-24T07:52:42;11.80;99.90
7572;DHT22;3827;49.928;8.548;2022-09-24T07:55:09;12.10;99.90
7572;DHT22;3827;49.928;8.548;2022-09-24T07:57:37;12.30;99.90
7572;DHT22;3827;49.928;8.548;2022-09-24T08:00:05;12.60;99.90
7572;DHT22;3827;49.928;8.548;2022-09-24T08:02:33;12.60;99.90
7572;DHT22;3827;49.928;8.548;2022-09-24T08:05:00;12.70;99.90
7572;DHT22;3827;49.928;8.548;2022-09-24T08:07:27;12.90;99.90
7572;DHT22;3827;49.928;8.548;2022-09-24T08:09:54;13.00;99.90
7572;DHT22;3827;49.928;8.548;2022-09-24T08:12:24;13.10;99.90
7572;DHT22;3827;49.928;8.548;2022-09-24T08:14:53;13.30;99.90
7572;DHT22;3827;49.928;8.548;2022-09-24T08:17:19;13.40;99.90
7572;DHT22;3827;49.928;8.548;2022-09-24T08:19:46;13.50;99.90
7572;DHT22;3827;49.928;8.548;2022-09-24T08:22:13;13.50;99.90
7572;DHT22;3827;49.928;8.548;2022-09-24T08:24:40;13.60;99.90
7572;DHT22;3827;49.928;8.548;2022-09-24T08:27:08;13.70;99.90
7572;DHT22;3827;49.928;8.548;2022-09-24T08:29:35;13.70;99.90
7572;DHT22;3827;49.928;8.548;2022-09-24T08:32:06;13.70;99.90
7572;DHT22;3827;49.928;8.548;2022-09-24T08:34:33;13.70;99.90
7572;DHT22;3827;49.928;8.548;2022-09-24T08:37:02;13.90;99.90
7572;DHT22;3827;49.928;8.548;2022-09-24T08:39:33;14.30;99.90
7572;DHT22;3827;49.928;8.548;2022-09-24T08:42:02;14.00;99.90
7572;DHT22;3827;49.928;8.548;2022-09-24T08:44:34;13.90;99.90
7572;DHT22;3827;49.928;8.548;2022-09-24T08:47:31;14.00;99.90
7572;DHT22;3827;49.928;8.548;2022-09-24T08:50:05;13.90;99.90
7572;DHT22;3827;49.928;8.548;2022-09-24T08:52:51;13.70;99.90
7572;DHT22;3827;49.928;8.548;2022-09-24T08:55:23;13.80;99.90
7572;DHT22;3827;49.928;8.548;2022-09-24T08:57:59;13.70;99.90
7572;DHT22;3827;49.928;8.548;2022-09-24T09:00:33;13.60;99.90
7572;DHT22;3827;49.928;8.548;2022-09-24T09:03:07;13.60;99.90
7572;DHT22;3827;49.928;8.548;2022-09-24T09:05:48;13.60;99.90
7572;DHT22;3827;49.928;8.548;2022-09-24T09:08:26;13.20;99.90
7572;DHT22;3827;49.928;8.548;2022-09-24T09:10:59;13.00;99.90
7572;DHT22;3827;49.928;8.548;2022-09-24T09:13:31;13.00;99.90
7572;DHT22;3827;49.928;8.548;2022-09-24T09:16:03;13.10;99.90
7572;DHT22;3827;49.928;8.548;2022-09-24T09:18:35;13.20;99.90
7572;DHT22;3827;49.928;8.548;2022-09-24T09:21:12;13.20;99.90
7572;DHT22;3827;49.928;8.548;2022-09-24T09:23:46;13.20;99.90
7572;DHT22;3827;49.928;8.548;2022-09-24T09:26:18;13.20;99.90
7572;DHT22;3827;49.928;8.548;2022-09-24T09:28:46;13.40;99.90
7572;DHT22;3827;49.928;8.548;2022-09-24T09:31:23;13.50;99.90
7572;DHT22;3827;49.928;8.548;2022-09-24T09:34:20;13.80;99.90
7572;DHT22;3827;49.928;8.548;2022-09-24T09:37:03;14.00;99.90
7572;DHT22;3827;49.928;8.548;2022-09-24T09:39:39;14.20;99.90
7572;DHT22;3827;49.928;8.548;2022-09-24T09:42:23;14.30;99.90
7572;DHT22;3827;49.928;8.548;2022-09-24T09:44:51;14.60;99.90
7572;DHT22;3827;49.928;8.548;2022-09-24T09:47:24;14.80;99.90
7572;DHT22;3827;49.928;8.548;2022-09-24T09:50:02;14.50;99.90
7572;DHT22;3827;49.928;8.548;2022-09-24T09:52:34;14.70;99.90
7572;DHT22;3827;49.928;8.548;2022-09-24T09:55:03;15.00;99.90
7572;DHT22;3827;49.928;8.548;2022-09-24T09:57:32;15.80;99.90
7572;DHT22;3827;49.928;8.548;2022-09-24T10:00:00;16.40;99.90
7572;DHT22;3827;49.928;8.548;2022-09-24T10:02:30;16.90;99.90
7572;DHT22;3827;49.928;8.548;2022-09-24T10:05:01;17.50;99.90
7572;DHT22;3827;49.928;8.548;2022-09-24T10:07:28;17.60;99.90
7572;DHT22;3827;49.928;8.548;2022-09-24T10:10:16;17.80;99.90
7572;DHT22;3827;49.928;8.548;2022-09-24T10:12:45;17.70;99.90
7572;DHT22;3827;49.928;8.548;2022-09-24T10:15:17;17.60;99.90
7572;DHT22;3827;49.928;8.548;2022-09-24T10:17:47;17.90;99.90
7572;DHT22;3827;49.928;8.548;2022-09-24T10:20:17;18.20;99.90
7572;DHT22;3827;49.928;8.548;2022-09-24T10:22:49;18.30;99.90
7572;DHT22;3827;49.928;8.548;2022-09-24T10:25:19;18.30;99.90
7572;DHT22;3827;49.928;8.548;2022-09-24T10:27:48;18.40;99.90
7572;DHT22;3827;49.928;8.548;2022-09-24T10:30:16;18.20;99.90
7572;DHT22;3827;49.928;8.548;2022-09-24T10:33:02;18.20;99.90
7572;DHT22;3827;49.928;8.548;2022-09-24T10:35:33;18.20;99.90
7572;DHT22;3827;49.928;8.548;2022-09-24T10:38:02;18.30;99.90
7572;DHT22;3827;49.928;8.548;2022-09-24T10:40:37;18.50;99.90
7572;DHT22;3827;49.928;8.548;2022-09-24T10:43:05;18.70;99.90
7572;DHT22;3827;49.928;8.548;2022-09-24T10:45:42;18.80;99.90
7572;DHT22;3827;49.928;8.548;2022-09-24T10:48:15;18.90;99.90
7572;DHT22;3827;49.928;8.548;2022-09-24T10:50:52;18.80;99.90
7572;DHT22;3827;49.928;8.548;2022-09-24T10:53:29;18.90;99.90
7572;DHT22;3827;49.928;8.548;2022-09-24T10:56:08;19.20;99.90
7572;DHT22;3827;49.928;8.548;2022-09-24T10:59:00;19.30;99.90
7572;DHT22;3827;49.928;8.548;2022-09-24T11:01:41;19.80;99.90
7572;DHT22;3827;49.928;8.548;2022-09-24T11:04:27;20.20;99.90
7572;DHT22;3827;49.928;8.548;2022-09-24T11:07:30;20.30;99.90
7572;DHT22;3827;49.928;8.548;2022-09-24T11:10:08;20.60;99.90
7572;DHT22;3827;49.928;8.548;2022-09-24T11:12:44;21.20;99.90
7572;DHT22;3827;49.928;8.548;2022-09-24T11:15:25;21.80;99.90
7572;DHT22;3827;49.928;8.548;2022-09-24T11:18:14;21.80;99.90
7572;DHT22;3827;49.928;8.548;2022-09-24T11:20:49;22.10;99.90
7572;DHT22;3827;49.928;8.548;2022-09-24T11:23:37;21.90;99.90
7572;DHT22;3827;49.928;8.548;2022-09-24T11:26:18;21.70;99.90
7572;DHT22;3827;49.928;8.548;2022-09-24T11:29:15;21.30;99.90
7572;DHT22;3827;49.928;8.548;2022-09-24T11:31:58;21.10;99.90
7572;DHT22;3827;49.928;8.548;2022-09-24T11:34:51;21.20;99.90
7572;DHT22;3827;49.928;8.548;2022-09-24T11:37:29;20.60;99.90
7572;DHT22;3827;49.928;8.548;2022-09-24T11:40:15;20.50;99.90
7572;DHT22;3827;49.928;8.548;2022-09-24T11:42:56;20.40;99.90
7572;DHT22;3827;49.928;8.548;2022-09-24T11:45:44;20.40;99.90
7572;DHT22;3827;49.928;8.548;2022-09-24T11:48:22;20.40;99.90
7572;DHT22;3827;49.928;8.548;2022-09-24T11:50:59;20.30;99.90
7572;DHT22;3827;49.928;8.548;2022-09-24T11:53:33;20.30;99.90
7572;DHT22;3827;49.928;8.548;2022-09-24T11:56:08;19.90;99.90
7572;DHT22;3827;49.928;8.548;2022-09-24T11:58:40;19.90;99.90
7572;DHT22;3827;49.928;8.548;2022-09-24T12:01:12;20.00;99.90
7572;DHT22;3827;49.928;8.548;2022-09-24T12:03:44;20.30;99.90
7572;DHT22;3827;49.928;8.548;2022-09-24T12:06:15;20.50;99.90
7572;DHT22;3827;49.928;8.548;2022-09-24T12:08:47;20.50;99.90
7572;DHT22;3827;49.928;8.548;2022-09-24T12:11:22;20.70;99.90
7572;DHT22;3827;49.928;8.548;2022-09-24T12:13:55;20.80;99.90
7572;DHT22;3827;49.928;8.548;2022-09-24T12:16:26;20.80;99.90
7572;DHT22;3827;49.928;8.548;2022-09-24T12:18:55;20.80;99.90
7572;DHT22;3827;49.928;8.548;2022-09-24T12:21:26;20.80;99.90
7572;DHT22;3827;49.928;8.548;2022-09-24T12:23:59;21.00;99.90
7572;DHT22;3827;49.928;8.548;2022-09-24T12:26:29;21.30;99.90
7572;DHT22;3827;49.928;8.548;2022-09-24T12:29:00;21.50;99.90
7572;DHT22;3827;49.928;8.548;2022-09-24T12:31:54;21.60;99.90
7572;DHT22;3827;49.928;8.548;2022-09-24T12:34:47;21.80;99.90
7572;DHT22;3827;49.928;8.548;2022-09-24T12:37:21;22.20;99.90
7572;DHT22;3827;49.928;8.548;2022-09-24T12:39:53;22.70;99.90
7572;DHT22;3827;49.928;8.548;2022-09-24T12:42:31;23.00;99.90
7572;DHT22;3827;49.928;8.548;2022-09-24T12:45:00;22.90;99.90
7572;DHT22;3827;49.928;8.548;2022-09-24T12:47:31;23.20;99.90
7572;DHT22;3827;49.928;8.548;2022-09-24T12:50:00;22.50;99.90
7572;DHT22;3827;49.928;8.548;2022-09-24T12:52:33;22.00;99.90
7572;DHT22;3827;49.928;8.548;2022-09-24T12:55:03;22.00;99.90
7572;DHT22;3827;49.928;8.548;2022-09-24T12:57:34;21.60;99.90
7572;DHT22;3827;49.928;8.548;2022-09-24T13:00:31;21.30;99.90
7572;DHT22;3827;49.928;8.548;2022-09-24T13:02:51;21.30;99.90
7572;DHT22;3827;49.928;8.548;2022-09-24T13:05:27;21.30;99.90
7572;DHT22;3827;49.928;8.548;2022-09-24T13:07:56;20.90;99.90
7572;DHT22;3827;49.928;8.548;2022-09-24T13:10:26;20.40;99.90
7572;DHT22;3827;49.928;8.548;2022-09-24T13:12:55;20.70;99.90
7572;DHT22;3827;49.928;8.548;2022-09-24T13:15:25;20.40;99.90
7572;DHT22;3827;49.928;8.548;2022-09-24T13:18:19;20.20;99.90
7572;DHT22;3827;49.928;8.548;2022-09-24T13:21:00;20.10;99.90
7572;DHT22;3827;49.928;8.548;2022-09-24T13:26:29;20.40;99.90
7572;DHT22;3827;49.928;8.548;2022-09-24T13:29:00;20.50;99.90
7572;DHT22;3827;49.928;8.548;2022-09-24T13:31:39;20.70;99.90
7572;DHT22;3827;49.928;8.548;2022-09-24T13:34:16;21.00;99.90
7572;DHT22;3827;49.928;8.548;2022-09-24T13:36:47;20.80;99.90
7572;DHT22;3827;49.928;8.548;2022-09-24T13:39:22;20.50;99.90
7572;DHT22;3827;49.928;8.548;2022-09-24T13:41:58;20.60;99.90
7572;DHT22;3827;49.928;8.548;2022-09-24T13:44:30;20.40;99.90
7572;DHT22;3827;49.928;8.548;2022-09-24T13:47:03;20.10;99.90
7572;DHT22;3827;49.928;8.548;2022-09-24T13:49:31;19.80;99.90
7572;DHT22;3827;49.928;8.548;2022-09-24T13:52:08;19.70;99.90
7572;DHT22;3827;49.928;8.548;2022-09-24T13:54:47;19.50;99.90
7572;DHT22;3827;49.928;8.548;2022-09-24T13:57:21;19.50;99.90
7572;DHT22;3827;49.928;8.548;2022-09-24T14:00:03;19.30;99.90
7572;DHT22;3827;49.928;8.548;2022-09-24T14:02:33;19.40;99.90
7572;DHT22;3827;49.928;8.548;2022-09-24T14:05:02;19.50;99.90
7572;DHT22;3827;49.928;8.548;2022-09-24T14:07:29;19.60;99.90
7572;DHT22;3827;49.928;8.548;2022-09-24T14:10:03;19.60;99.90
7572;DHT22;3827;49.928;8.548;2022-09-24T14:12:30;19.50;99.90
7572;DHT22;3827;49.928;8.548;2022-09-24T14:14:59;19.40;99.90
7572;DHT22;3827;49.928;8.548;2022-09-24T14:17:28;19.30;99.90
7572;DHT22;3827;49.928;8.548;2022-09-24T14:19:56;19.10;99.90
7572;DHT22;3827;49.928;8.548;2022-09-24T14:22:25;19.00;99.90
7572;DHT22;3827;49.928;8.548;2022-09-24T14:24:58;19.00;99.90
7572;DHT22;3827;49.928;8.548;2022-09-24T14:27:26;18.90;99.90
7572;DHT22;3827;49.928;8.548;2022-09-24T14:29:56;18.80;99.90
7572;DHT22;3827;49.928;8.548;2022-09-24T14:32:28;18.80;99.90
7572;DHT22;3827;49.928;8.548;2022-09-24T14:34:57;18.70;99.90
7572;DHT22;3827;49.928;8.548;2022-09-24T14:37:27;18.70;99.90
7572;DHT22;3827;49.928;8.548;2022-09-24T14:39:58;18.70;99.90
7572;DHT22;3827;49.928;8.548;2022-09-24T14:42:28;18.70;99.90
7572;DHT22;3827;49.928;8.548;2022-09-24T14:45:00;18.80;99.90
7572;DHT22;3827;49.928;8.548;2022-09-24T14:47:31;19.00;99.90
7572;DHT22;3827;49.928;8.548;2022-09-24T14:49:59;19.10;99.90
7572;DHT22;3827;49.928;8.548;2022-09-24T14:52:30;19.20;99.90
7572;DHT22;3827;49.928;8.548;2022-09-24T14:55:12;19.30;99.90
7572;DHT22;3827;49.928;8.548;2022-09-24T14:57:40;19.20;99.90
7572;DHT22;3827;49.928;8.548;2022-09-24T15:00:22;19.20;99.90
7572;DHT22;3827;49.928;8.548;2022-09-24T15:02:56;19.10;99.90
7572;DHT22;3827;49.928;8.548;2022-09-24T15:05:24;19.30;99.90
7572;DHT22;3827;49.928;8.548;2022-09-24T15:07:53;19.20;99.90
7572;DHT22;3827;49.928;8.548;2022-09-24T15:10:32;19.20;99.90
7572;DHT22;3827;49.928;8.548;2022-09-24T15:12:59;19.20;99.90
7572;DHT22;3827;49.928;8.548;2022-09-24T15:15:28;19.30;99.90
7572;DHT22;3827;49.928;8.548;2022-09-24T15:17:57;19.30;99.90
7572;DHT22;3827;49.928;8.548;2022-09-24T15:20:24;19.20;99.90
7572;DHT22;3827;49.928;8.548;2022-09-24T15:22:51;19.20;99.90
7572;DHT22;3827;49.928;8.548;2022-09-24T15:25:18;19.30;99.90
7572;DHT22;3827;49.928;8.548;2022-09-24T15:27:45;19.40;99.90
7572;DHT22;3827;49.928;8.548;2022-09-24T15:30:18;19.40;99.90
7572;DHT22;3827;49.928;8.548;2022-09-24T15:32:45;19.20;99.90
7572;DHT22;3827;49.928;8.548;2022-09-24T15:35:16;19.20;99.90
7572;DHT22;3827;49.928;8.548;2022-09-24T15:37:43;18.90;99.90
7572;DHT22;3827;49.928;8.548;2022-09-24T15:40:19;18.60;99.90
7572;DHT22;3827;49.928;8.548;2022-09-24T15:42:47;18.40;99.90
7572;DHT22;3827;49.928;8.548;2022-09-24T15:45:16;18.40;99.90
7572;DHT22;3827;49.928;8.548;2022-09-24T15:47:43;18.40;99.90
7572;DHT22;3827;49.928;8.548;2022-09-24T15:50:10;18.40;99.90
7572;DHT22;3827;49.928;8.548;2022-09-24T15:52:43;18.40;99.90
7572;DHT22;3827;49.928;8.548;2022-09-24T15:55:14;18.30;99.90
7572;DHT22;3827;49.928;8.548;2022-09-24T15:57:41;18.30;99.90
7572;DHT22;3827;49.928;8.548;2022-09-24T16:00:13;18.30;99.90
7572;DHT22;3827;49.928;8.548;2022-09-24T16:02:43;18.30;99.90
7572;DHT22;3827;49.928;8.548;2022-09-24T16:05:12;18.30;99.90
7572;DHT22;3827;49.928;8.548;2022-09-24T16:07:40;18.20;99.90
7572;DHT22;3827;49.928;8.548;2022-09-24T16:10:08;18.20;99.90
7572;DHT22;3827;49.928;8.548;2022-09-24T16:12:36;18.10;99.90
7572;DHT22;3827;49.928;8.548;2022-09-24T16:15:03;18.20;99.90
7572;DHT22;3827;49.928;8.548;2022-09-24T16:17:30;18.10;99.90
7572;DHT22;3827;49.928;8.548;2022-09-24T16:19:57;18.10;99.90
7572;DHT22;3827;49.928;8.548;2022-09-24T16:22:24;18.10;99.90
7572;DHT22;3827;49.928;8.548;2022-09-24T16:24:53;18.10;99.90
7572;DHT22;3827;49.928;8.548;2022-09-24T16:27:20;18.20;99.90
7572;DHT22;3827;49.928;8.548;2022-09-24T16:29:47;18.00;99.90
7572;DHT22;3827;49.928;8.548;2022-09-24T16:32:14;17.80;99.90
7572;DHT22;3827;49.928;8.548;2022-09-24T16:34:41;17.70;99.90